createdAt,value
2023-03-20T00:02:28.126Z,9.60
2023-03-20T00:04:57.209Z,9.60
2023-03-20T00:07:26.256Z,9.50
2023-03-20T00:09:55.181Z,9.50
2023-03-20T00:12:27.260Z,9.50
2023-03-20T00:14:56.082Z,9.50
2023-03-20T00:17:25.181Z,9.40
2023-03-20T00:19:54.210Z,9.40
2023-03-20T00:22:23.065Z,9.40
2023-03-20T00:24:51.643Z,9.40
2023-03-20T00:27:20.231Z,9.40
2023-03-20T00:29:50.306Z,9.40
2023-03-20T00:32:19.099Z,9.40
2023-03-20T00:34:48.898Z,9.40
2023-03-20T00:37:17.445Z,9.40
2023-03-20T00:39:46.004Z,9.50
2023-03-20T00:42:23.441Z,9.50
2023-03-20T00:44:55.965Z,9.50
2023-03-20T00:47:25.821Z,9.50
2023-03-20T00:49:56.046Z,9.40
2023-03-20T00:52:25.314Z,9.40
2023-03-20T00:54:53.902Z,9.40
2023-03-20T00:57:27.306Z,9.40
2023-03-20T01:00:01.533Z,9.30
2023-03-20T01:02:31.460Z,9.30
2023-03-20T01:05:00.859Z,9.30
2023-03-20T01:07:29.417Z,9.30
2023-03-20T01:09:57.947Z,9.30
2023-03-20T01:12:27.492Z,9.30
2023-03-20T01:15:00.215Z,9.20
2023-03-20T01:17:30.885Z,9.20
2023-03-20T01:19:59.422Z,9.20
2023-03-20T01:22:27.938Z,9.20
2023-03-20T01:24:56.418Z,9.20
2023-03-20T01:27:24.993Z,9.20
2023-03-20T01:29:53.923Z,9.20
2023-03-20T01:32:23.800Z,9.20
2023-03-20T01:34:53.291Z,9.20
2023-03-20T01:37:26.844Z,9.20
2023-03-20T01:39:57.369Z,9.20
2023-03-20T01:42:26.780Z,9.20
2023-03-20T01:44:55.882Z,9.20
2023-03-20T01:47:27.940Z,9.20
2023-03-20T01:50:23.067Z,9.20
2023-03-20T01:52:55.530Z,9.20
2023-03-20T01:55:25.219Z,9.10
2023-03-20T01:57:56.466Z,9.20
2023-03-20T02:00:25.848Z,9.10
2023-03-20T02:02:56.259Z,9.10
2023-03-20T02:05:25.643Z,9.10
2023-03-20T02:08:03.979Z,9.10
2023-03-20T02:10:32.691Z,9.10
2023-03-20T02:13:03.275Z,9.10
2023-03-20T02:15:32.512Z,9.10
2023-03-20T02:18:02.550Z,9.10
2023-03-20T02:20:46.434Z,9.10
2023-03-20T02:23:48.580Z,9.10
2023-03-20T02:26:48.264Z,9.10
2023-03-20T02:29:46.775Z,9.10
2023-03-20T02:32:57.280Z,9.10
2023-03-20T02:35:57.064Z,9.10
2023-03-20T02:38:40.662Z,9.10
2023-03-20T02:41:18.952Z,9.10
2023-03-20T02:43:54.723Z,9.10
2023-03-20T02:46:32.400Z,9.10
2023-03-20T02:49:07.123Z,9.10
2023-03-20T02:51:41.731Z,9.10
2023-03-20T02:54:21.329Z,9.10
2023-03-20T02:56:57.921Z,9.10
2023-03-20T02:59:33.785Z,9.10
2023-03-20T03:02:08.759Z,9.10
2023-03-20T03:04:40.665Z,9.10
2023-03-20T03:07:12.158Z,9.00
2023-03-20T03:09:47.061Z,9.00
2023-03-20T03:12:19.531Z,9.00
2023-03-20T03:14:50.880Z,9.00
2023-03-20T03:17:23.555Z,9.00
2023-03-20T03:19:56.550Z,9.00
2023-03-20T03:22:25.820Z,9.00
2023-03-20T03:24:56.725Z,9.00
2023-03-20T03:27:28.456Z,9.00
2023-03-20T03:29:59.933Z,9.00
2023-03-20T03:32:33.122Z,9.00
2023-03-20T03:35:03.030Z,9.00
2023-03-20T03:37:41.934Z,8.90
2023-03-20T03:40:21.096Z,8.90
2023-03-20T03:42:57.282Z,8.90
2023-03-20T03:45:32.956Z,8.80
2023-03-20T03:48:07.835Z,8.80
2023-03-20T03:50:46.559Z,8.80
2023-03-20T03:53:16.846Z,8.80
2023-03-20T03:55:51.584Z,8.70
2023-03-20T03:58:24.726Z,8.80
2023-03-20T04:00:56.202Z,8.80
2023-03-20T04:03:30.028Z,8.90
2023-03-20T04:06:00.121Z,8.90
2023-03-20T04:08:28.906Z,8.90
2023-03-20T04:10:59.337Z,8.90
2023-03-20T04:13:28.035Z,8.90
2023-03-20T04:15:56.596Z,8.90
2023-03-20T04:18:26.034Z,8.90
2023-03-20T04:20:54.862Z,8.90
2023-03-20T04:23:23.392Z,8.90
2023-03-20T04:25:51.916Z,8.90
2023-03-20T04:28:21.890Z,8.90
2023-03-20T04:30:54.753Z,8.80
2023-03-20T04:33:23.408Z,8.80
2023-03-20T04:35:52.660Z,8.80
2023-03-20T04:38:23.276Z,8.70
2023-03-20T04:40:52.014Z,8.70
2023-03-20T04:43:21.925Z,8.70
2023-03-20T04:45:50.626Z,8.70
2023-03-20T04:48:19.159Z,8.70
2023-03-20T04:50:48.582Z,8.70
2023-03-20T04:53:17.420Z,8.60
2023-03-20T04:55:46.339Z,8.70
2023-03-20T04:58:16.908Z,8.70
2023-03-20T05:00:47.111Z,8.70
2023-03-20T05:03:15.613Z,8.70
2023-03-20T05:05:44.172Z,8.70
2023-03-20T05:08:13.237Z,8.70
2023-03-20T05:10:41.883Z,8.70
2023-03-20T05:13:10.657Z,8.60
2023-03-20T05:15:39.353Z,8.60
2023-03-20T05:18:09.855Z,8.60
2023-03-20T05:20:38.252Z,8.60
2023-03-20T05:23:07.616Z,8.60
2023-03-20T05:25:36.757Z,8.50
2023-03-20T05:28:05.699Z,8.50
2023-03-20T05:30:34.395Z,8.40
2023-03-20T05:33:02.954Z,8.40
2023-03-20T05:35:33.039Z,8.40
2023-03-20T05:38:01.645Z,8.40
2023-03-20T05:40:30.224Z,8.40
2023-03-20T05:42:59.354Z,8.30
2023-03-20T05:45:27.859Z,8.30
2023-03-20T05:47:56.410Z,8.30
2023-03-20T05:50:25.582Z,8.20
2023-03-20T05:52:55.996Z,8.20
2023-03-20T05:55:24.657Z,8.20
2023-03-20T05:57:53.157Z,8.20
2023-03-20T06:00:22.118Z,8.20
2023-03-20T06:02:50.967Z,8.20
2023-03-20T06:05:19.540Z,8.10
2023-03-20T06:07:48.097Z,8.10
2023-03-20T06:10:20.142Z,8.10
2023-03-20T06:12:49.017Z,8.10
2023-03-20T06:15:17.660Z,8.20
2023-03-20T06:17:46.157Z,8.10
2023-03-20T06:20:15.252Z,8.20
2023-03-20T06:22:44.080Z,8.20
2023-03-20T06:25:12.709Z,8.20
2023-03-20T06:27:42.693Z,8.20
2023-03-20T06:30:12.663Z,8.20
2023-03-20T06:32:41.454Z,8.30
2023-03-20T06:35:11.083Z,8.20
2023-03-20T06:37:39.707Z,8.20
2023-03-20T06:40:10.111Z,8.20
2023-03-20T06:42:38.870Z,8.30
2023-03-20T06:45:11.310Z,8.30
2023-03-20T06:47:39.892Z,8.30
2023-03-20T06:50:10.441Z,8.30
2023-03-20T06:52:40.010Z,8.30
2023-03-20T06:55:09.184Z,8.30
2023-03-20T06:57:37.702Z,8.40
2023-03-20T07:00:08.123Z,8.40
2023-03-20T07:02:38.212Z,8.40
2023-03-20T07:05:08.376Z,8.40
2023-03-20T07:07:37.219Z,8.40
2023-03-20T07:10:07.583Z,8.50
2023-03-20T07:12:36.079Z,8.50
2023-03-20T07:15:05.929Z,8.60
2023-03-20T07:17:35.099Z,8.60
2023-03-20T07:20:05.784Z,8.60
2023-03-20T07:22:34.362Z,8.60
2023-03-20T07:25:03.715Z,8.70
2023-03-20T07:27:32.297Z,8.70
2023-03-20T07:30:00.863Z,8.70
2023-03-20T07:32:29.886Z,8.70
2023-03-20T07:34:59.360Z,8.70
2023-03-20T07:37:29.336Z,8.80
2023-03-20T07:39:57.907Z,8.80
2023-03-20T07:42:27.139Z,8.80
2023-03-20T07:44:56.065Z,8.90
2023-03-20T07:47:24.737Z,9.00
2023-03-20T07:49:54.315Z,9.00
2023-03-20T07:52:23.939Z,9.00
2023-03-20T07:54:53.984Z,9.00
2023-03-20T07:57:22.528Z,9.10
2023-03-20T07:59:51.134Z,9.10
2023-03-20T08:02:20.576Z,9.10
2023-03-20T08:04:49.188Z,9.20
2023-03-20T08:07:18.193Z,9.20
2023-03-20T08:09:47.453Z,9.30
2023-03-20T08:12:18.178Z,9.40
2023-03-20T08:14:46.757Z,9.50
2023-03-20T08:17:18.729Z,9.50
2023-03-20T08:19:49.981Z,9.60
2023-03-20T08:22:18.807Z,9.70
2023-03-20T08:24:47.399Z,9.80
2023-03-20T08:27:17.870Z,9.80
2023-03-20T08:29:46.458Z,9.90
2023-03-20T08:32:15.116Z,10.00
2023-03-20T08:34:43.932Z,10.00
2023-03-20T08:37:14.241Z,10.00
2023-03-20T08:39:42.928Z,10.10
2023-03-20T08:42:11.649Z,10.20
2023-03-20T08:44:41.770Z,10.20
2023-03-20T08:47:12.305Z,10.20
2023-03-20T08:49:40.861Z,10.20
2023-03-20T08:52:10.091Z,10.40
2023-03-20T08:54:38.731Z,10.40
2023-03-20T08:57:07.632Z,10.40
2023-03-20T08:59:36.291Z,10.40
2023-03-20T09:02:07.233Z,10.30
2023-03-20T09:04:35.935Z,10.30
2023-03-20T09:07:05.147Z,10.30
2023-03-20T09:09:34.702Z,10.30
2023-03-20T09:12:03.451Z,10.20
2023-03-20T09:14:32.098Z,10.20
2023-03-20T09:17:01.556Z,10.20
2023-03-20T09:19:31.933Z,10.20
2023-03-20T09:22:01.719Z,10.20
2023-03-20T09:24:31.553Z,10.20
2023-03-20T09:27:03.705Z,10.10
2023-03-20T09:29:32.537Z,10.10
2023-03-20T09:32:05.313Z,10.20
2023-03-20T09:34:35.388Z,10.20
2023-03-20T09:37:04.335Z,10.20
2023-03-20T09:39:33.464Z,10.10
2023-03-20T09:42:09.246Z,10.10
2023-03-20T09:44:50.274Z,10.20
2023-03-20T09:47:24.319Z,10.20
2023-03-20T09:50:03.724Z,10.30
2023-03-20T09:52:34.569Z,10.40
2023-03-20T09:55:08.411Z,10.30
2023-03-20T09:57:41.370Z,10.40
2023-03-20T10:00:19.635Z,10.40
2023-03-20T10:02:54.272Z,10.40
2023-03-20T10:05:29.253Z,10.40
2023-03-20T10:07:59.972Z,10.50
2023-03-20T10:10:38.077Z,10.60
2023-03-20T10:13:19.338Z,10.70
2023-03-20T10:15:54.197Z,10.80
2023-03-20T10:18:27.945Z,10.70
2023-03-20T10:21:01.287Z,10.70
2023-03-20T10:23:37.490Z,10.80
2023-03-20T10:26:11.940Z,10.70
2023-03-20T10:28:47.759Z,10.80
2023-03-20T10:31:31.103Z,10.80
2023-03-20T10:34:23.923Z,10.90
2023-03-20T10:37:10.022Z,11.00
2023-03-20T10:39:53.558Z,10.90
2023-03-20T10:42:25.070Z,11.00
2023-03-20T10:44:59.804Z,10.90
2023-03-20T10:47:31.797Z,11.00
2023-03-20T10:50:04.816Z,11.00
2023-03-20T10:52:39.687Z,11.00
2023-03-20T10:55:13.349Z,11.10
2023-03-20T10:57:48.749Z,11.10
2023-03-20T11:00:23.495Z,11.10
2023-03-20T11:02:52.530Z,11.10
2023-03-20T11:05:29.875Z,11.10
2023-03-20T11:08:07.117Z,11.20
2023-03-20T11:10:37.479Z,11.20
2023-03-20T11:13:19.559Z,11.10
2023-03-20T11:15:48.400Z,11.10
2023-03-20T11:18:17.580Z,11.20
2023-03-20T11:20:51.149Z,11.30
2023-03-20T11:23:25.677Z,11.30
2023-03-20T11:26:00.013Z,11.40
2023-03-20T11:28:33.865Z,11.60
2023-03-20T11:31:06.873Z,11.50
2023-03-20T11:33:39.763Z,11.60
2023-03-20T11:36:27.639Z,11.60
2023-03-20T11:39:06.146Z,11.50
2023-03-20T11:41:35.507Z,11.60
2023-03-20T11:44:04.169Z,11.60
2023-03-20T11:46:33.093Z,11.60
2023-03-20T11:49:11.633Z,11.60
2023-03-20T11:51:41.194Z,11.50
2023-03-20T11:54:17.948Z,11.40
2023-03-20T11:56:55.067Z,11.40
2023-03-20T11:59:27.502Z,11.40
2023-03-20T12:02:01.212Z,11.30
2023-03-20T12:04:34.400Z,11.20
2023-03-20T12:07:11.348Z,11.10
2023-03-20T12:09:46.303Z,11.20
2023-03-20T12:12:26.425Z,11.20
2023-03-20T12:14:59.216Z,11.20
2023-03-20T12:17:55.728Z,11.10
2023-03-20T12:20:38.208Z,11.20
2023-03-20T12:23:16.527Z,11.20
2023-03-20T12:25:55.147Z,11.20
2023-03-20T12:28:29.679Z,11.10
2023-03-20T12:31:09.735Z,10.90
2023-03-20T12:33:51.814Z,10.80
2023-03-20T12:36:28.647Z,10.70
2023-03-20T12:38:58.208Z,10.70
2023-03-20T12:41:36.456Z,10.60
2023-03-20T12:44:27.715Z,10.70
2023-03-20T12:47:07.318Z,10.80
2023-03-20T12:49:47.304Z,10.80
2023-03-20T12:52:28.368Z,10.90
2023-03-20T12:55:26.160Z,10.90
2023-03-20T12:58:09.712Z,10.90
2023-03-20T13:00:46.067Z,11.00
2023-03-20T13:03:29.727Z,11.10
2023-03-20T13:06:06.096Z,11.00
2023-03-20T13:08:56.307Z,11.00
2023-03-20T13:11:37.215Z,11.00
2023-03-20T13:14:16.139Z,11.10
2023-03-20T13:16:53.860Z,11.20
2023-03-20T13:19:30.430Z,11.20
2023-03-20T13:22:06.146Z,11.20
2023-03-20T13:24:40.586Z,11.20
2023-03-20T13:27:28.516Z,11.30
2023-03-20T13:30:05.368Z,11.30
2023-03-20T13:32:47.553Z,11.30
2023-03-20T13:35:37.891Z,11.40
2023-03-20T13:38:14.644Z,11.30
2023-03-20T13:40:47.731Z,11.30
2023-03-20T13:43:26.516Z,11.40
2023-03-20T13:46:03.247Z,11.30
2023-03-20T13:48:36.246Z,11.40
2023-03-20T13:51:15.802Z,11.40
2023-03-20T13:53:56.835Z,11.30
2023-03-20T13:56:38.708Z,11.20
2023-03-20T13:59:24.766Z,11.10
2023-03-20T14:02:09.800Z,11.00
2023-03-20T14:04:39.402Z,11.10
2023-03-20T14:07:30.060Z,11.10
2023-03-20T14:09:58.970Z,11.30
2023-03-20T14:12:28.799Z,11.20
2023-03-20T14:15:01.099Z,11.20
2023-03-20T14:17:33.210Z,11.30
2023-03-20T14:20:14.597Z,11.30
2023-03-20T14:22:45.501Z,11.30
2023-03-20T14:25:21.057Z,11.40
2023-03-20T14:27:58.848Z,11.40
2023-03-20T14:30:46.340Z,11.40
2023-03-20T14:33:36.199Z,11.40
2023-03-20T14:36:29.852Z,11.50
2023-03-20T14:39:24.164Z,11.50
2023-03-20T14:42:23.772Z,11.60
2023-03-20T14:45:33.036Z,11.50
2023-03-20T14:48:09.377Z,11.40
2023-03-20T14:50:43.925Z,11.30
2023-03-20T14:53:18.871Z,11.20
2023-03-20T14:56:11.988Z,11.30
2023-03-20T14:58:50.929Z,11.30
2023-03-20T15:01:30.748Z,11.20
2023-03-20T15:04:03.719Z,11.20
2023-03-20T15:06:35.661Z,11.20
2023-03-20T15:09:13.287Z,11.10
2023-03-20T15:11:44.897Z,11.00
2023-03-20T15:14:21.436Z,11.00
2023-03-20T15:16:52.496Z,11.20
2023-03-20T15:19:21.936Z,11.30
2023-03-20T15:21:52.507Z,11.30
2023-03-20T15:24:23.712Z,11.20
2023-03-20T15:26:58.162Z,11.20
2023-03-20T15:29:28.368Z,11.10
2023-03-20T15:32:12.898Z,11.00
2023-03-20T15:34:44.341Z,10.90
2023-03-20T15:37:21.245Z,10.90
2023-03-20T15:39:52.449Z,10.80
2023-03-20T15:42:25.373Z,10.80
2023-03-20T15:44:56.344Z,10.70
2023-03-20T15:47:26.305Z,10.80
2023-03-20T15:49:57.105Z,10.70
2023-03-20T15:52:33.486Z,10.70
2023-03-20T15:55:07.388Z,10.60
2023-03-20T15:57:37.957Z,10.60
2023-03-20T16:00:16.454Z,10.60
2023-03-20T16:02:48.480Z,10.50
2023-03-20T16:05:19.932Z,10.40
2023-03-20T16:07:50.448Z,10.40
2023-03-20T16:10:22.174Z,10.40
2023-03-20T16:12:54.662Z,10.30
2023-03-20T16:15:28.207Z,10.30
2023-03-20T16:17:59.810Z,10.30
2023-03-20T16:20:34.402Z,10.30
2023-03-20T16:23:09.402Z,10.30
2023-03-20T16:25:40.622Z,10.20
2023-03-20T16:28:09.874Z,10.10
2023-03-20T16:30:39.486Z,9.90
2023-03-20T16:33:14.049Z,9.80
2023-03-20T16:35:46.766Z,9.70
2023-03-20T16:38:27.304Z,9.60
2023-03-20T16:40:58.610Z,9.50
2023-03-20T16:43:32.424Z,9.40
2023-03-20T16:46:08.703Z,9.30
2023-03-20T16:48:39.962Z,9.30
2023-03-20T16:51:18.401Z,9.30
2023-03-20T16:53:50.176Z,9.20
2023-03-20T16:56:23.812Z,9.20
2023-03-20T16:58:56.439Z,9.20
2023-03-20T17:01:28.357Z,9.20
2023-03-20T17:03:59.456Z,9.20
2023-03-20T17:06:39.119Z,9.20
2023-03-20T17:09:24.997Z,9.20
2023-03-20T17:12:03.791Z,9.20
2023-03-20T17:14:37.666Z,9.20
2023-03-20T17:17:13.318Z,9.20
2023-03-20T17:19:42.376Z,9.10
2023-03-20T17:22:18.251Z,9.10
2023-03-20T17:24:49.027Z,9.10
2023-03-20T17:27:20.037Z,9.10
2023-03-20T17:29:50.651Z,9.10
2023-03-20T17:32:20.937Z,9.10
2023-03-20T17:34:49.794Z,9.20
2023-03-20T17:37:24.647Z,9.10
2023-03-20T17:39:55.686Z,9.10
2023-03-20T17:42:31.872Z,9.10
2023-03-20T17:45:01.399Z,9.10
2023-03-20T17:47:30.956Z,9.20
2023-03-20T17:49:59.912Z,9.20
2023-03-20T17:52:30.607Z,9.20
2023-03-20T17:55:00.956Z,9.20
2023-03-20T17:57:34.961Z,9.20
2023-03-20T18:00:09.222Z,9.20
2023-03-20T18:02:38.200Z,9.20
2023-03-20T18:05:08.960Z,9.20
2023-03-20T18:07:37.873Z,9.20
2023-03-20T18:10:15.005Z,9.10
2023-03-20T18:12:44.330Z,9.20
2023-03-20T18:15:15.966Z,9.20
2023-03-20T18:17:47.790Z,9.20
2023-03-20T18:20:27.561Z,9.30
2023-03-20T18:22:56.746Z,9.20
2023-03-20T18:25:31.092Z,9.30
2023-03-20T18:28:02.069Z,9.20
2023-03-20T18:30:39.481Z,9.30
2023-03-20T18:33:12.726Z,9.30
2023-03-20T18:35:42.019Z,9.30
2023-03-20T18:38:14.652Z,9.30
2023-03-20T18:40:47.777Z,9.30
2023-03-20T18:43:16.606Z,9.40
2023-03-20T18:45:46.452Z,9.40
2023-03-20T18:48:16.641Z,9.40
2023-03-20T18:50:51.272Z,9.40
2023-03-20T18:53:23.091Z,9.40
2023-03-20T18:55:53.814Z,9.40
2023-03-20T18:58:26.205Z,9.40
2023-03-20T19:00:57.173Z,9.40
2023-03-20T19:03:30.584Z,9.40
2023-03-20T19:06:00.734Z,9.50
2023-03-20T19:08:34.324Z,9.50
2023-03-20T19:11:10.211Z,9.50
2023-03-20T19:13:39.604Z,9.50
2023-03-20T19:16:23.597Z,9.60
2023-03-20T19:18:56.767Z,9.50
2023-03-20T19:21:29.723Z,9.50
2023-03-20T19:24:08.196Z,9.60
2023-03-20T19:26:39.208Z,9.60
2023-03-20T19:29:11.188Z,9.60
2023-03-20T19:31:42.255Z,9.60
2023-03-20T19:34:44.359Z,9.60
2023-03-20T19:37:03.824Z,9.60
2023-03-20T19:39:33.066Z,9.60
2023-03-20T19:42:32.168Z,9.60
2023-03-20T19:44:59.391Z,9.70
2023-03-20T19:47:28.585Z,9.70
2023-03-20T19:50:05.796Z,9.70
2023-03-20T19:52:50.212Z,9.70
2023-03-20T19:55:25.059Z,9.70
2023-03-20T19:57:58.212Z,9.70
2023-03-20T20:03:23.140Z,9.70
2023-03-20T20:06:00.187Z,9.70
2023-03-20T20:08:45.153Z,9.70
2023-03-20T20:11:17.822Z,9.70
2023-03-20T20:14:08.059Z,9.70
2023-03-20T20:16:40.360Z,9.70
2023-03-20T20:19:09.498Z,9.80
2023-03-20T20:22:17.304Z,9.80
2023-03-20T20:24:28.622Z,9.70
2023-03-20T20:27:17.468Z,9.80
2023-03-20T20:29:51.136Z,9.80
2023-03-20T20:32:23.583Z,9.80
2023-03-20T20:40:34.456Z,9.70
2023-03-20T20:43:09.999Z,9.80
2023-03-20T20:45:41.300Z,9.80
2023-03-20T20:48:10.588Z,9.80
2023-03-20T20:50:41.043Z,9.80
2023-03-20T20:53:10.472Z,9.80
2023-03-20T20:55:39.969Z,9.80
2023-03-20T20:58:11.778Z,9.70
2023-03-20T21:00:51.247Z,9.70
2023-03-20T21:03:21.211Z,9.70
2023-03-20T21:05:51.931Z,9.70
2023-03-20T21:08:20.995Z,9.70
2023-03-20T21:10:51.458Z,9.70
2023-03-20T21:13:21.186Z,9.70
2023-03-20T21:15:59.505Z,9.70
2023-03-20T21:18:29.706Z,9.70
2023-03-20T21:21:06.869Z,9.70
2023-03-20T21:23:36.709Z,9.70
2023-03-20T21:26:06.256Z,9.70
2023-03-20T21:28:36.326Z,9.70
2023-03-20T21:31:23.933Z,9.70
2023-03-20T21:33:55.366Z,9.70
2023-03-20T21:36:26.193Z,9.80
2023-03-20T21:39:08.296Z,9.70
2023-03-20T21:41:39.200Z,9.80
2023-03-20T21:44:17.725Z,9.80
2023-03-20T21:47:58.137Z,9.80
2023-03-20T21:53:06.794Z,9.90
2023-03-20T21:56:29.334Z,9.90
2023-03-20T21:58:51.043Z,9.90
2023-03-20T22:01:39.716Z,10.00
2023-03-20T22:04:49.163Z,10.00
2023-03-20T22:10:10.912Z,10.00
2023-03-20T22:13:08.602Z,10.10
2023-03-20T22:15:46.197Z,10.10
2023-03-20T22:21:30.046Z,10.10
2023-03-20T22:27:21.852Z,10.10
2023-03-20T22:38:29.390Z,10.10
2023-03-20T22:41:27.476Z,10.00
2023-03-20T22:46:42.159Z,10.00
2023-03-20T22:49:03.197Z,10.00
2023-03-20T22:51:36.930Z,10.00
2023-03-20T22:54:12.300Z,10.00
2023-03-20T22:56:41.270Z,10.00
2023-03-20T22:59:10.186Z,10.00
2023-03-20T23:01:39.138Z,10.10
2023-03-20T23:04:08.040Z,10.10
2023-03-20T23:06:36.853Z,10.00
2023-03-20T23:09:15.081Z,10.10
2023-03-20T23:11:45.906Z,10.00
2023-03-20T23:14:21.069Z,10.10
2023-03-20T23:16:50.687Z,10.10
2023-03-20T23:19:19.742Z,10.10
2023-03-20T23:21:48.367Z,10.10
2023-03-20T23:24:17.124Z,10.10
2023-03-20T23:26:47.719Z,10.10
2023-03-20T23:29:16.799Z,10.20
2023-03-20T23:31:45.421Z,10.20
2023-03-20T23:34:15.195Z,10.20
2023-03-20T23:36:44.699Z,10.20
2023-03-20T23:39:16.006Z,10.20
2023-03-20T23:44:36.250Z,10.20
2023-03-20T23:47:19.431Z,10.20
2023-03-20T23:49:48.726Z,10.20
2023-03-20T23:52:17.379Z,10.20
2023-03-20T23:54:46.021Z,10.20
2023-03-20T23:57:15.245Z,10.20
2023-03-20T23:59:47.270Z,10.20
